createdAt,value
2022-08-29T00:01:33.136Z,15.05
2022-08-29T00:04:04.138Z,14.27
2022-08-29T00:06:32.527Z,14.07
2022-08-29T00:09:00.586Z,16.33
2022-08-29T00:11:28.576Z,15.98
2022-08-29T00:13:56.703Z,14.90
2022-08-29T00:16:24.913Z,16.27
2022-08-29T00:18:53.058Z,17.70
2022-08-29T00:21:22.654Z,16.08
2022-08-29T00:23:50.762Z,14.73
2022-08-29T00:26:18.877Z,16.83
2022-08-29T00:28:46.994Z,15.68
2022-08-29T00:31:15.224Z,16.02
2022-08-29T00:33:43.684Z,14.55
2022-08-29T00:36:11.814Z,17.95
2022-08-29T00:38:41.827Z,17.38
2022-08-29T00:41:10.283Z,17.58
2022-08-29T00:43:39.223Z,22.17
2022-08-29T00:46:28.550Z,16.40
2022-08-29T00:49:00.125Z,18.27
2022-08-29T00:51:28.294Z,18.23
2022-08-29T00:54:02.050Z,15.73
2022-08-29T00:56:31.508Z,16.40
2022-08-29T00:59:05.186Z,15.15
2022-08-29T01:01:33.428Z,17.05
2022-08-29T01:04:01.973Z,18.40
2022-08-29T01:06:35.114Z,14.55
2022-08-29T01:09:05.914Z,15.02
2022-08-29T01:11:51.807Z,16.05
2022-08-29T01:14:22.960Z,21.00
2022-08-29T01:16:53.292Z,19.55
2022-08-29T01:19:33.592Z,16.85
2022-08-29T01:22:14.918Z,19.85
2022-08-29T01:24:50.780Z,19.48
2022-08-29T01:27:21.206Z,18.38
2022-08-29T01:29:50.261Z,22.30
2022-08-29T01:32:18.388Z,18.83
2022-08-29T01:34:46.494Z,17.27
2022-08-29T01:37:17.207Z,20.95
2022-08-29T01:39:47.767Z,16.90
2022-08-29T01:42:18.433Z,20.70
2022-08-29T01:44:51.124Z,18.70
2022-08-29T01:47:21.456Z,16.77
2022-08-29T01:49:49.538Z,18.77
2022-08-29T01:52:17.813Z,17.23
2022-08-29T01:54:47.900Z,21.13
2022-08-29T01:57:16.998Z,21.35
2022-08-29T01:59:45.757Z,19.55
2022-08-29T02:02:18.340Z,18.70
2022-08-29T02:04:47.342Z,18.83
2022-08-29T02:07:17.624Z,20.20
2022-08-29T02:09:48.228Z,22.40
2022-08-29T02:12:17.606Z,19.55
2022-08-29T02:14:45.929Z,21.35
2022-08-29T02:17:14.055Z,25.85
2022-08-29T02:19:43.571Z,22.83
2022-08-29T02:22:12.138Z,21.17
2022-08-29T02:24:40.377Z,21.52
2022-08-29T02:27:10.530Z,17.52
2022-08-29T02:29:39.623Z,19.10
2022-08-29T02:32:09.429Z,19.30
2022-08-29T02:34:37.923Z,23.67
2022-08-29T02:37:07.526Z,18.33
2022-08-29T02:39:35.862Z,20.85
2022-08-29T02:42:04.790Z,20.15
2022-08-29T02:44:34.241Z,23.08
2022-08-29T02:47:02.360Z,18.90
2022-08-29T02:49:30.504Z,19.88
2022-08-29T02:51:58.969Z,18.85
2022-08-29T02:54:27.289Z,20.20
2022-08-29T02:56:55.391Z,24.42
2022-08-29T02:59:23.471Z,19.58
2022-08-29T03:01:53.654Z,21.70
2022-08-29T03:04:21.914Z,22.48
2022-08-29T03:06:50.393Z,22.35
2022-08-29T03:09:18.446Z,15.93
2022-08-29T03:11:46.480Z,20.33
2022-08-29T03:14:14.588Z,19.60
2022-08-29T03:16:44.211Z,23.13
2022-08-29T03:19:13.700Z,25.27
2022-08-29T03:21:42.079Z,22.38
2022-08-29T03:24:10.146Z,24.45
2022-08-29T03:26:38.872Z,24.38
2022-08-29T03:29:06.993Z,20.70
2022-08-29T03:31:35.765Z,20.45
2022-08-29T03:34:04.925Z,20.65
2022-08-29T03:36:34.513Z,16.73
2022-08-29T03:39:02.715Z,20.27
2022-08-29T03:41:31.241Z,23.17
2022-08-29T03:44:00.263Z,20.83
2022-08-29T03:46:29.394Z,19.08
2022-08-29T03:48:57.556Z,19.33
2022-08-29T03:51:28.657Z,24.48
2022-08-29T03:53:59.698Z,17.50
2022-08-29T03:56:28.951Z,24.65
2022-08-29T03:58:58.408Z,22.17
2022-08-29T04:01:29.202Z,22.88
2022-08-29T04:03:58.661Z,27.42
2022-08-29T04:06:28.700Z,21.48
2022-08-29T04:08:59.140Z,21.85
2022-08-29T04:11:28.942Z,22.58
2022-08-29T04:13:57.220Z,23.42
2022-08-29T04:16:30.964Z,20.65
2022-08-29T04:19:00.076Z,17.55
2022-08-29T04:21:28.239Z,20.65
2022-08-29T04:23:56.520Z,20.98
2022-08-29T04:26:41.489Z,26.45
2022-08-29T04:29:11.308Z,21.95
2022-08-29T04:31:40.594Z,27.08
2022-08-29T04:34:10.653Z,22.08
2022-08-29T04:36:39.933Z,19.80
2022-08-29T04:39:08.123Z,20.15
2022-08-29T04:41:38.664Z,17.98
2022-08-29T04:44:08.207Z,27.52
2022-08-29T04:46:36.493Z,21.17
2022-08-29T04:49:04.752Z,22.02
2022-08-29T04:51:34.465Z,23.75
2022-08-29T04:54:03.290Z,24.33
2022-08-29T04:56:31.457Z,24.05
2022-08-29T04:59:01.138Z,23.88
2022-08-29T05:01:29.310Z,21.23
2022-08-29T05:03:58.066Z,22.40
2022-08-29T05:06:28.279Z,23.35
2022-08-29T05:08:59.725Z,20.63
2022-08-29T05:11:29.842Z,23.77
2022-08-29T05:13:58.262Z,17.23
2022-08-29T05:16:29.979Z,19.45
2022-08-29T05:18:59.965Z,17.85
2022-08-29T05:21:35.060Z,17.92
2022-08-29T05:24:05.506Z,14.30
2022-08-29T05:26:36.001Z,14.32
2022-08-29T05:29:04.290Z,18.23
2022-08-29T05:31:38.200Z,20.73
2022-08-29T05:34:14.101Z,16.25
2022-08-29T05:36:55.229Z,18.48
2022-08-29T05:39:23.333Z,20.35
2022-08-29T05:41:51.476Z,17.80
2022-08-29T05:44:19.614Z,26.15
2022-08-29T05:46:49.815Z,22.02
2022-08-29T05:49:18.417Z,22.17
2022-08-29T05:51:46.584Z,19.90
2022-08-29T05:54:14.705Z,19.17
2022-08-29T05:56:43.075Z,18.83
2022-08-29T05:59:13.629Z,18.48
2022-08-29T06:01:41.903Z,18.52
2022-08-29T06:04:11.487Z,21.88
2022-08-29T06:06:41.544Z,18.98
2022-08-29T06:09:10.387Z,18.65
2022-08-29T06:11:38.492Z,19.25
2022-08-29T06:14:07.253Z,16.95
2022-08-29T06:16:35.444Z,18.10
2022-08-29T06:19:03.620Z,17.88
2022-08-29T06:21:33.395Z,17.80
2022-08-29T06:24:01.600Z,13.55
2022-08-29T06:26:31.578Z,15.82
2022-08-29T06:28:59.815Z,13.00
2022-08-29T06:31:29.505Z,15.88
2022-08-29T06:33:59.724Z,15.60
2022-08-29T06:36:28.948Z,15.40
2022-08-29T06:38:59.191Z,16.13
2022-08-29T06:41:28.135Z,10.35
2022-08-29T06:43:57.997Z,39.15
2022-08-29T06:46:28.797Z,17.83
2022-08-29T06:48:58.148Z,15.38
2022-08-29T06:51:27.674Z,15.13
2022-08-29T06:53:55.760Z,20.13
2022-08-29T06:56:25.258Z,28.98
2022-08-29T06:58:54.865Z,14.38
2022-08-29T07:01:24.151Z,14.43
2022-08-29T07:03:54.451Z,12.32
2022-08-29T07:06:23.447Z,23.33
2022-08-29T07:08:55.169Z,18.13
2022-08-29T07:11:26.790Z,23.80
2022-08-29T07:13:58.289Z,16.83
2022-08-29T07:16:26.594Z,31.70
2022-08-29T07:18:54.990Z,15.60
2022-08-29T07:21:25.197Z,19.55
2022-08-29T07:23:54.816Z,20.92
2022-08-29T07:26:26.750Z,21.67
2022-08-29T07:28:57.400Z,31.88
2022-08-29T07:31:27.341Z,19.52
2022-08-29T07:34:02.830Z,20.90
2022-08-29T07:36:31.928Z,21.10
2022-08-29T07:38:59.929Z,29.63
2022-08-29T07:41:29.760Z,17.30
2022-08-29T07:43:59.023Z,18.80
2022-08-29T07:46:27.331Z,21.20
2022-08-29T07:48:55.662Z,32.92
2022-08-29T07:51:27.373Z,28.33
2022-08-29T07:53:55.981Z,28.42
2022-08-29T07:56:26.493Z,94.22
2022-08-29T07:58:57.129Z,19.83
2022-08-29T08:01:25.945Z,27.27
2022-08-29T08:03:54.919Z,46.78
2022-08-29T08:06:27.693Z,32.83
2022-08-29T08:08:56.581Z,54.95
2022-08-29T08:11:26.110Z,55.13
2022-08-29T08:13:56.675Z,23.13
2022-08-29T08:16:27.082Z,31.38
2022-08-29T08:18:55.982Z,26.77
2022-08-29T08:21:25.068Z,19.00
2022-08-29T08:23:53.547Z,66.50
2022-08-29T08:26:22.069Z,55.03
2022-08-29T08:28:50.280Z,42.60
2022-08-29T08:31:20.494Z,35.03
2022-08-29T08:33:49.138Z,59.92
2022-08-29T08:36:19.595Z,39.67
2022-08-29T08:38:48.067Z,54.40
2022-08-29T08:41:32.281Z,49.80
2022-08-29T08:44:05.379Z,67.25
2022-08-29T08:46:40.418Z,13.48
2022-08-29T08:49:13.584Z,45.75
2022-08-29T08:51:51.186Z,48.92
2022-08-29T08:54:28.428Z,48.67
2022-08-29T08:57:04.811Z,27.15
2022-08-29T08:59:39.495Z,60.85
2022-08-29T09:02:16.814Z,53.92
2022-08-29T09:04:59.880Z,60.15
2022-08-29T09:07:43.698Z,17.98
2022-08-29T09:10:19.853Z,63.57
2022-08-29T09:12:57.189Z,47.92
2022-08-29T09:15:32.846Z,29.30
2022-08-29T09:18:06.510Z,25.00
2022-08-29T09:20:37.583Z,32.20
2022-08-29T09:23:12.323Z,35.67
2022-08-29T09:25:40.840Z,73.03
2022-08-29T09:28:10.324Z,30.58
2022-08-29T09:30:42.517Z,85.20
2022-08-29T09:33:14.435Z,94.88
2022-08-29T09:35:45.746Z,97.13
2022-08-29T09:38:21.699Z,43.85
2022-08-29T09:40:55.608Z,25.73
2022-08-29T09:43:28.068Z,82.45
2022-08-29T09:46:17.730Z,70.82
2022-08-29T09:48:49.321Z,122.35
2022-08-29T09:51:28.430Z,21.63
2022-08-29T09:54:12.798Z,30.38
2022-08-29T09:56:49.929Z,58.30
2022-08-29T09:59:24.848Z,26.55
2022-08-29T10:02:12.452Z,118.85
2022-08-29T10:04:44.985Z,70.50
2022-08-29T10:07:17.720Z,89.20
2022-08-29T10:09:55.015Z,79.63
2022-08-29T10:12:33.116Z,107.28
2022-08-29T10:15:06.107Z,26.08
2022-08-29T10:17:57.200Z,94.78
2022-08-29T10:20:41.087Z,66.20
2022-08-29T10:23:20.623Z,52.67
2022-08-29T10:25:48.884Z,61.75
2022-08-29T10:28:26.383Z,122.43
2022-08-29T10:31:00.590Z,47.55
2022-08-29T10:33:49.368Z,101.75
2022-08-29T10:36:23.255Z,86.95
2022-08-29T10:38:56.488Z,115.72
2022-08-29T10:41:33.550Z,25.65
2022-08-29T10:47:16.341Z,128.68
2022-08-29T10:49:59.307Z,138.40
2022-08-29T10:52:35.202Z,89.40
2022-08-29T10:55:13.322Z,175.73
2022-08-29T10:57:54.442Z,132.02
2022-08-29T11:00:24.425Z,141.38
2022-08-29T11:03:00.852Z,185.88
2022-08-29T11:05:40.611Z,41.38
2022-08-29T11:08:16.590Z,35.53
2022-08-29T11:10:49.908Z,115.18
2022-08-29T11:13:23.358Z,119.40
2022-08-29T11:16:01.972Z,109.22
2022-08-29T11:18:37.861Z,263.48
2022-08-29T11:21:17.495Z,148.07
2022-08-29T11:23:49.474Z,240.88
2022-08-29T11:26:29.920Z,216.55
2022-08-29T11:29:03.358Z,117.93
2022-08-29T11:31:46.190Z,299.70
2022-08-29T11:34:28.971Z,221.25
2022-08-29T11:37:24.150Z,186.98
2022-08-29T11:39:59.822Z,152.45
2022-08-29T11:45:35.600Z,198.55
2022-08-29T11:48:30.692Z,49.47
2022-08-29T11:50:59.544Z,76.93
2022-08-29T11:53:35.182Z,97.72
2022-08-29T11:56:28.195Z,70.47
2022-08-29T11:58:57.373Z,34.00
2022-08-29T12:02:00.653Z,193.98
2022-08-29T12:04:52.014Z,97.50
2022-08-29T12:07:21.386Z,61.55
2022-08-29T12:09:53.352Z,163.00
2022-08-29T12:12:43.836Z,111.95
2022-08-29T12:15:53.693Z,35.47
2022-08-29T12:18:42.405Z,16.50
2022-08-29T12:21:43.028Z,140.38
2022-08-29T12:24:42.939Z,159.68
2022-08-29T12:27:25.553Z,164.38
2022-08-29T12:29:55.404Z,62.97
2022-08-29T12:32:45.584Z,163.82
2022-08-29T12:35:33.180Z,158.02
2022-08-29T12:38:18.212Z,118.85
2022-08-29T12:40:57.171Z,147.93
2022-08-29T12:43:36.418Z,147.43
2022-08-29T12:46:14.145Z,129.95
2022-08-29T12:48:49.686Z,121.85
2022-08-29T12:51:37.551Z,102.45
2022-08-29T12:54:07.303Z,26.08
2022-08-29T12:56:35.945Z,14.55
2022-08-29T12:59:05.940Z,35.40
2022-08-29T13:01:38.688Z,100.32
2022-08-29T13:04:15.038Z,38.40
2022-08-29T13:06:53.209Z,108.47
2022-08-29T13:09:26.768Z,13.93
2022-08-29T13:12:09.131Z,74.23
2022-08-29T13:14:49.254Z,28.85
2022-08-29T13:17:22.241Z,25.42
2022-08-29T13:20:27.691Z,20.40
2022-08-29T13:23:20.146Z,21.58
2022-08-29T13:25:51.467Z,37.83
2022-08-29T13:28:24.971Z,14.98
2022-08-29T13:31:31.218Z,35.53
2022-08-29T13:34:27.753Z,62.67
2022-08-29T13:37:02.329Z,15.07
2022-08-29T13:39:45.840Z,21.23
2022-08-29T13:42:27.394Z,21.85
2022-08-29T13:45:17.735Z,26.63
2022-08-29T13:48:09.258Z,29.60
2022-08-29T13:50:38.676Z,38.33
2022-08-29T13:53:07.007Z,34.30
2022-08-29T13:55:35.378Z,21.80
2022-08-29T13:58:04.574Z,15.88
2022-08-29T14:00:35.450Z,15.88
2022-08-29T14:03:05.612Z,16.13
2022-08-29T14:05:35.318Z,34.20
2022-08-29T14:08:06.624Z,40.65
2022-08-29T14:10:35.294Z,17.67
2022-08-29T14:13:03.961Z,23.88
2022-08-29T14:15:32.813Z,34.95
2022-08-29T14:18:01.122Z,15.60
2022-08-29T14:20:29.363Z,19.73
2022-08-29T14:22:57.458Z,42.10
2022-08-29T14:25:27.402Z,24.20
2022-08-29T14:27:55.658Z,16.08
2022-08-29T14:30:24.872Z,20.92
2022-08-29T14:32:53.293Z,53.78
2022-08-29T14:35:26.801Z,18.92
2022-08-29T14:38:00.128Z,21.92
2022-08-29T14:40:30.614Z,16.20
2022-08-29T14:42:59.042Z,24.10
2022-08-29T14:45:27.508Z,16.52
2022-08-29T14:47:55.705Z,30.88
2022-08-29T14:50:24.589Z,14.73
2022-08-29T14:52:53.566Z,15.45
2022-08-29T14:55:22.294Z,17.90
2022-08-29T14:57:51.901Z,17.85
2022-08-29T15:00:23.089Z,15.35
2022-08-29T15:02:51.276Z,21.77
2022-08-29T15:05:19.954Z,18.83
2022-08-29T15:07:48.138Z,18.83
2022-08-29T15:10:18.563Z,25.60
2022-08-29T15:12:46.882Z,50.78
2022-08-29T15:15:16.400Z,52.22
2022-08-29T15:17:44.802Z,35.08
2022-08-29T15:23:02.238Z,105.10
2022-08-29T15:25:30.292Z,159.52
2022-08-29T15:27:58.390Z,56.20
2022-08-29T15:30:27.904Z,31.38
2022-08-29T15:32:55.964Z,75.85
2022-08-29T15:35:24.396Z,166.90
2022-08-29T15:37:54.378Z,78.10
2022-08-29T15:40:22.803Z,62.75
2022-08-29T15:42:51.086Z,141.40
2022-08-29T15:45:19.289Z,149.18
2022-08-29T15:47:53.955Z,57.53
2022-08-29T15:50:23.589Z,51.92
2022-08-29T15:52:51.713Z,87.45
2022-08-29T15:55:21.233Z,54.15
2022-08-29T15:57:51.394Z,36.30
2022-08-29T16:00:30.761Z,65.05
2022-08-29T16:03:05.072Z,58.97
2022-08-29T16:05:34.826Z,22.70
2022-08-29T16:08:03.777Z,34.42
2022-08-29T16:10:32.548Z,42.22
2022-08-29T16:13:00.926Z,19.65
2022-08-29T16:15:31.134Z,20.10
2022-08-29T16:18:00.142Z,17.52
2022-08-29T16:20:30.422Z,16.30
2022-08-29T16:22:58.657Z,16.88
2022-08-29T16:25:27.622Z,15.90
2022-08-29T16:27:57.242Z,18.70
2022-08-29T16:30:25.432Z,25.65
2022-08-29T16:32:54.844Z,17.42
2022-08-29T16:35:23.539Z,19.05
2022-08-29T16:38:03.166Z,18.88
2022-08-29T16:40:32.379Z,15.85
2022-08-29T16:43:01.631Z,18.73
2022-08-29T16:45:29.730Z,22.05
2022-08-29T16:47:57.919Z,29.92
2022-08-29T16:50:27.356Z,21.00
2022-08-29T16:52:56.940Z,18.23
2022-08-29T16:55:25.843Z,16.25
2022-08-29T16:58:11.201Z,22.83
2022-08-29T17:00:40.388Z,25.50
2022-08-29T17:03:08.911Z,39.00
2022-08-29T17:05:37.406Z,37.65
2022-08-29T17:08:05.749Z,32.50
2022-08-29T17:10:32.687Z,17.58
2022-08-29T17:12:59.608Z,25.00
2022-08-29T17:15:27.698Z,21.25
2022-08-29T17:17:56.305Z,50.25
2022-08-29T17:20:24.957Z,22.05
2022-08-29T17:22:53.550Z,16.52
2022-08-29T17:25:24.105Z,18.48
2022-08-29T17:28:17.769Z,16.88
2022-08-29T17:30:40.647Z,28.60
2022-08-29T17:33:10.772Z,15.90
2022-08-29T17:35:39.302Z,15.07
2022-08-29T17:38:08.469Z,22.17
2022-08-29T17:40:38.646Z,18.83
2022-08-29T17:43:09.109Z,20.98
2022-08-29T17:45:38.780Z,16.35
2022-08-29T17:48:06.925Z,17.42
2022-08-29T17:50:36.367Z,16.17
2022-08-29T17:53:05.544Z,18.80
2022-08-29T17:55:33.701Z,15.15
2022-08-29T17:58:03.187Z,14.50
2022-08-29T18:00:31.564Z,13.63
2022-08-29T18:03:00.083Z,15.27
2022-08-29T18:05:28.285Z,16.88
2022-08-29T18:07:56.979Z,13.38
2022-08-29T18:10:25.546Z,15.07
2022-08-29T18:12:53.596Z,13.25
2022-08-29T18:15:23.575Z,16.80
2022-08-29T18:17:51.976Z,16.10
2022-08-29T18:20:21.732Z,15.63
2022-08-29T18:22:49.908Z,15.38
2022-08-29T18:25:22.615Z,14.02
2022-08-29T18:27:51.434Z,14.18
2022-08-29T18:30:20.386Z,17.10
2022-08-29T18:32:50.426Z,25.13
2022-08-29T18:35:19.196Z,17.55
2022-08-29T18:37:47.423Z,15.80
2022-08-29T18:40:15.893Z,19.50
2022-08-29T18:42:44.190Z,15.75
2022-08-29T18:45:13.020Z,15.57
2022-08-29T18:47:41.721Z,18.50
2022-08-29T18:50:29.303Z,15.88
2022-08-29T18:52:57.547Z,16.08
2022-08-29T18:55:25.979Z,16.15
2022-08-29T18:57:54.567Z,19.88
2022-08-29T19:00:25.033Z,16.00
2022-08-29T19:02:53.274Z,16.83
2022-08-29T19:05:24.406Z,14.80
2022-08-29T19:07:53.280Z,14.52
2022-08-29T19:10:22.361Z,16.13
2022-08-29T19:12:50.577Z,19.08
2022-08-29T19:15:20.483Z,19.60
2022-08-29T19:17:48.671Z,17.35
2022-08-29T19:20:38.255Z,18.20
2022-08-29T19:23:08.871Z,17.73
2022-08-29T19:25:37.582Z,22.88
2022-08-29T19:28:06.378Z,17.50
2022-08-29T19:30:35.125Z,16.77
2022-08-29T19:33:03.180Z,21.10
2022-08-29T19:35:31.365Z,19.85
2022-08-29T19:37:59.644Z,21.90
2022-08-29T19:40:32.642Z,17.90
2022-08-29T19:43:03.747Z,17.02
2022-08-29T19:45:43.247Z,18.27
2022-08-29T19:48:14.905Z,15.98
2022-08-29T19:50:47.723Z,16.92
2022-08-29T19:53:24.569Z,17.55
2022-08-29T19:55:56.636Z,15.57
2022-08-29T19:58:31.231Z,17.33
2022-08-29T20:00:59.982Z,19.20
2022-08-29T20:03:28.918Z,19.27
2022-08-29T20:05:57.241Z,16.90
2022-08-29T20:08:25.398Z,19.17
2022-08-29T20:10:53.550Z,19.02
2022-08-29T20:13:23.081Z,20.48
2022-08-29T20:15:52.329Z,18.95
2022-08-29T20:18:21.309Z,20.13
2022-08-29T20:20:49.752Z,23.25
2022-08-29T20:23:18.080Z,20.92
2022-08-29T20:25:47.150Z,20.73
2022-08-29T20:28:15.978Z,16.70
2022-08-29T20:30:46.001Z,18.13
2022-08-29T20:33:18.236Z,18.77
2022-08-29T20:36:03.935Z,18.33
2022-08-29T20:38:33.297Z,19.20
2022-08-29T20:41:01.591Z,20.80
2022-08-29T20:43:29.975Z,21.95
2022-08-29T20:46:00.931Z,19.88
2022-08-29T20:48:31.196Z,21.63
2022-08-29T20:51:01.410Z,21.42
2022-08-29T20:53:32.490Z,21.52
2022-08-29T20:56:01.212Z,21.05
2022-08-29T20:58:30.150Z,21.83
2022-08-29T21:01:01.062Z,24.02
2022-08-29T21:03:46.587Z,20.63
2022-08-29T21:06:18.979Z,22.63
2022-08-29T21:08:47.032Z,20.52
2022-08-29T21:11:15.683Z,21.65
2022-08-29T21:13:44.286Z,22.25
2022-08-29T21:16:13.850Z,21.98
2022-08-29T21:18:42.038Z,21.65
2022-08-29T21:21:13.534Z,23.35
2022-08-29T21:23:42.113Z,24.67
2022-08-29T21:26:11.663Z,23.15
2022-08-29T21:28:39.898Z,22.73
2022-08-29T21:31:11.985Z,25.02
2022-08-29T21:33:43.275Z,23.38
2022-08-29T21:36:12.328Z,21.35
2022-08-29T21:38:40.518Z,22.33
2022-08-29T21:41:09.946Z,22.58
2022-08-29T21:43:38.489Z,22.48
2022-08-29T21:46:15.435Z,22.05
2022-08-29T21:48:45.454Z,22.98
2022-08-29T21:51:14.971Z,21.95
2022-08-29T21:53:43.061Z,23.90
2022-08-29T21:56:11.125Z,23.17
2022-08-29T21:58:39.697Z,23.30
2022-08-29T22:01:09.381Z,21.85
2022-08-29T22:03:37.527Z,20.38
2022-08-29T22:06:09.225Z,27.35
2022-08-29T22:08:39.935Z,23.80
2022-08-29T22:11:15.053Z,21.77
2022-08-29T22:13:43.381Z,21.05
2022-08-29T22:16:29.666Z,23.45
2022-08-29T22:19:02.297Z,21.73
2022-08-29T22:21:34.546Z,23.00
2022-08-29T22:24:03.462Z,22.33
2022-08-29T22:26:31.626Z,22.80
2022-08-29T22:28:59.737Z,22.42
2022-08-29T22:31:28.056Z,20.63
2022-08-29T22:33:56.144Z,23.27
2022-08-29T22:36:24.708Z,22.85
2022-08-29T22:38:56.326Z,23.55
2022-08-29T22:41:25.892Z,23.95
2022-08-29T22:44:31.608Z,21.95
2022-08-29T22:46:45.275Z,32.65
2022-08-29T22:49:13.665Z,23.77
2022-08-29T22:51:41.881Z,23.02
2022-08-29T22:54:28.743Z,23.38
2022-08-29T22:56:57.040Z,22.08
2022-08-29T22:59:25.113Z,24.48
2022-08-29T23:01:53.421Z,25.75
2022-08-29T23:04:21.584Z,25.67
2022-08-29T23:06:49.594Z,24.30
2022-08-29T23:09:19.161Z,25.23
2022-08-29T23:11:47.475Z,26.00
2022-08-29T23:14:16.107Z,24.50
2022-08-29T23:16:49.179Z,24.13
2022-08-29T23:19:17.282Z,21.08
2022-08-29T23:21:45.819Z,22.17
2022-08-29T23:24:14.342Z,26.70
2022-08-29T23:26:43.892Z,33.38
2022-08-29T23:29:11.932Z,30.63
2022-08-29T23:31:40.090Z,29.48
2022-08-29T23:34:08.574Z,30.85
2022-08-29T23:36:36.634Z,31.63
2022-08-29T23:39:05.926Z,33.25
2022-08-29T23:41:34.603Z,30.75
2022-08-29T23:44:04.766Z,31.67
2022-08-29T23:46:32.791Z,31.65
2022-08-29T23:49:00.994Z,32.45
2022-08-29T23:51:29.689Z,32.88
2022-08-29T23:53:58.080Z,33.40
2022-08-29T23:56:26.483Z,31.88
2022-08-29T23:58:56.770Z,30.95
